createdAt,value
2023-05-01T00:00:41.693Z,56.03
2023-05-01T00:01:41.756Z,57.33
2023-05-01T00:02:41.854Z,55.50
2023-05-01T00:03:42.032Z,58.57
2023-05-01T00:04:41.981Z,54.76
2023-05-01T00:05:42.037Z,57.49
2023-05-01T00:06:42.180Z,59.84
2023-05-01T00:07:42.152Z,57.30
2023-05-01T00:08:42.193Z,57.99
2023-05-01T00:09:42.221Z,58.44
2023-05-01T00:10:42.375Z,59.14
2023-05-01T00:11:42.411Z,56.78
2023-05-01T00:12:42.434Z,58.23
2023-05-01T00:13:42.495Z,58.57
2023-05-01T00:14:42.539Z,58.43
2023-05-01T00:15:42.606Z,59.49
2023-05-01T00:16:42.714Z,61.39
2023-05-01T00:17:42.774Z,59.44
2023-05-01T00:18:42.784Z,59.12
2023-05-01T00:19:42.839Z,57.51
2023-05-01T00:20:42.847Z,60.10
2023-05-01T00:21:42.956Z,60.58
2023-05-01T00:22:43.026Z,58.24
2023-05-01T00:23:43.041Z,60.10
2023-05-01T00:24:43.147Z,57.95
2023-05-01T00:25:43.139Z,58.78
2023-05-01T00:26:43.256Z,60.12
2023-05-01T00:27:43.327Z,62.74
2023-05-01T00:28:43.373Z,59.06
2023-05-01T00:29:43.379Z,60.76
2023-05-01T00:30:43.491Z,60.82
2023-05-01T00:31:43.609Z,59.79
2023-05-01T00:32:43.662Z,61.60
2023-05-01T00:33:43.671Z,63.13
2023-05-01T00:34:43.698Z,61.41
2023-05-01T00:35:43.809Z,60.83
2023-05-01T00:36:43.810Z,59.14
2023-05-01T00:37:43.892Z,61.12
2023-05-01T00:38:44.924Z,60.71
2023-05-01T00:39:44.006Z,62.74
2023-05-01T00:40:44.123Z,60.86
2023-05-01T00:41:44.180Z,60.11
2023-05-01T00:42:44.201Z,63.63
2023-05-01T00:43:44.261Z,60.86
2023-05-01T00:44:44.424Z,62.83
2023-05-01T00:45:44.396Z,57.46
2023-05-01T00:46:44.420Z,62.28
2023-05-01T00:47:44.496Z,60.85
2023-05-01T00:48:44.530Z,61.27
2023-05-01T00:49:44.648Z,60.43
2023-05-01T00:50:44.648Z,61.57
2023-05-01T00:51:44.728Z,62.62
2023-05-01T00:52:44.817Z,61.17
2023-05-01T00:53:44.875Z,59.22
2023-05-01T00:54:44.930Z,59.73
2023-05-01T00:55:44.945Z,62.91
2023-05-01T00:56:45.001Z,60.78
2023-05-01T00:57:45.052Z,63.21
2023-05-01T00:58:45.168Z,61.56
2023-05-01T00:59:45.236Z,58.91
2023-05-01T01:00:45.307Z,60.05
2023-05-01T01:01:45.337Z,62.23
2023-05-01T01:02:45.403Z,59.83
2023-05-01T01:03:45.464Z,61.76
2023-05-01T01:04:45.613Z,63.41
2023-05-01T01:05:45.539Z,59.45
2023-05-01T01:06:45.649Z,62.39
2023-05-01T01:07:45.682Z,60.82
2023-05-01T01:08:45.748Z,62.02
2023-05-01T01:09:45.780Z,59.11
2023-05-01T01:10:45.859Z,61.85
2023-05-01T01:11:45.897Z,59.81
2023-05-01T01:12:45.971Z,64.45
2023-05-01T01:13:46.042Z,58.40
2023-05-01T01:14:46.092Z,61.27
2023-05-01T01:15:46.132Z,61.77
2023-05-01T01:16:46.275Z,62.28
2023-05-01T01:17:46.307Z,63.28
2023-05-01T01:18:46.298Z,60.00
2023-05-01T01:19:46.357Z,61.87
2023-05-01T01:20:46.399Z,63.91
2023-05-01T01:21:46.439Z,61.07
2023-05-01T01:22:46.500Z,61.02
2023-05-01T01:23:46.538Z,59.34
2023-05-01T01:24:46.616Z,61.34
2023-05-01T01:25:46.942Z,63.88
2023-05-01T01:26:46.687Z,63.62
2023-05-01T01:27:46.723Z,62.55
2023-05-01T01:28:46.744Z,62.44
2023-05-01T01:29:46.804Z,63.10
2023-05-01T01:30:46.915Z,62.74
2023-05-01T01:31:46.927Z,63.79
2023-05-01T01:32:46.968Z,62.61
2023-05-01T01:33:46.967Z,62.15
2023-05-01T01:34:47.042Z,59.57
2023-05-01T01:35:47.045Z,64.18
2023-05-01T01:36:47.046Z,62.71
2023-05-01T01:37:47.125Z,63.87
2023-05-01T01:38:47.120Z,61.93
2023-05-01T01:39:47.176Z,62.47
2023-05-01T01:40:47.190Z,62.97
2023-05-01T01:41:47.261Z,63.08
2023-05-01T01:42:47.256Z,63.72
2023-05-01T01:43:47.304Z,64.13
2023-05-01T01:44:47.309Z,62.21
2023-05-01T01:45:47.454Z,60.85
2023-05-01T01:46:47.582Z,61.70
2023-05-01T01:47:47.383Z,62.52
2023-05-01T01:48:47.399Z,63.56
2023-05-01T01:49:47.916Z,63.93
2023-05-01T01:50:47.464Z,63.95
2023-05-01T01:51:47.474Z,60.24
2023-05-01T01:52:47.495Z,63.32
2023-05-01T01:53:47.486Z,63.78
2023-05-01T01:54:47.496Z,61.12
2023-05-01T01:55:47.503Z,59.90
2023-05-01T01:56:47.560Z,63.00
2023-05-01T01:57:47.529Z,65.51
2023-05-01T01:58:47.560Z,64.44
2023-05-01T01:59:47.581Z,61.66
2023-05-01T02:00:47.604Z,61.49
2023-05-01T02:01:47.613Z,59.94
2023-05-01T02:02:47.627Z,62.31
2023-05-01T02:03:47.635Z,62.40
2023-05-01T02:04:47.613Z,62.37
2023-05-01T02:05:47.569Z,62.59
2023-05-01T02:06:47.597Z,61.68
2023-05-01T02:07:47.578Z,64.41
2023-05-01T02:08:47.594Z,62.31
2023-05-01T02:09:47.558Z,62.80
2023-05-01T02:10:47.556Z,63.76
2023-05-01T02:11:47.556Z,64.14
2023-05-01T02:12:47.563Z,61.01
2023-05-01T02:13:47.556Z,62.44
2023-05-01T02:14:47.578Z,62.95
2023-05-01T02:15:47.597Z,62.52
2023-05-01T02:16:47.553Z,62.77
2023-05-01T02:17:47.588Z,63.95
2023-05-01T02:18:47.552Z,65.19
2023-05-01T02:19:47.518Z,64.06
2023-05-01T02:20:47.566Z,65.71
2023-05-01T02:21:47.588Z,63.01
2023-05-01T02:22:47.534Z,60.72
2023-05-01T02:23:47.543Z,61.32
2023-05-01T02:24:47.554Z,64.93
2023-05-01T02:25:47.549Z,62.74
2023-05-01T02:26:47.547Z,61.52
2023-05-01T02:27:47.520Z,63.96
2023-05-01T02:28:47.536Z,64.95
2023-05-01T02:29:47.524Z,60.72
2023-05-01T02:30:47.540Z,66.40
2023-05-01T02:31:47.565Z,63.52
2023-05-01T02:32:47.580Z,61.22
2023-05-01T02:33:47.556Z,63.49
2023-05-01T02:34:47.512Z,64.76
2023-05-01T02:35:47.537Z,62.08
2023-05-01T02:36:47.496Z,63.92
2023-05-01T02:37:47.539Z,62.89
2023-05-01T02:38:47.499Z,65.22
2023-05-01T02:39:47.475Z,62.13
2023-05-01T02:40:47.510Z,62.50
2023-05-01T02:41:47.520Z,62.77
2023-05-01T02:42:47.525Z,61.93
2023-05-01T02:43:47.526Z,62.50
2023-05-01T02:44:47.486Z,61.97
2023-05-01T02:45:47.997Z,63.60
2023-05-01T02:46:47.513Z,63.48
2023-05-01T02:47:47.547Z,62.65
2023-05-01T02:48:47.502Z,63.18
2023-05-01T02:49:47.514Z,64.87
2023-05-01T02:50:47.522Z,63.52
2023-05-01T02:51:47.503Z,65.60
2023-05-01T02:52:47.529Z,64.50
2023-05-01T02:53:47.491Z,61.45
2023-05-01T02:54:47.519Z,65.23
2023-05-01T02:55:47.555Z,62.70
2023-05-01T02:56:47.511Z,65.33
2023-05-01T02:57:47.521Z,63.87
2023-05-01T02:58:47.536Z,64.21
2023-05-01T02:59:47.538Z,65.33
2023-05-01T03:00:47.605Z,64.00
2023-05-01T03:01:47.616Z,64.31
2023-05-01T03:02:48.040Z,64.71
2023-05-01T03:03:47.574Z,62.73
2023-05-01T03:04:47.631Z,64.42
2023-05-01T03:05:47.551Z,63.88
2023-05-01T03:06:47.586Z,64.80
2023-05-01T03:07:47.525Z,62.44
2023-05-01T03:08:47.547Z,64.96
2023-05-01T03:09:47.538Z,62.99
2023-05-01T03:10:47.554Z,64.21
2023-05-01T03:11:47.560Z,64.30
2023-05-01T03:12:47.530Z,64.88
2023-05-01T03:13:47.588Z,64.57
2023-05-01T03:14:47.573Z,64.01
2023-05-01T03:15:47.590Z,64.69
2023-05-01T03:16:47.684Z,66.88
2023-05-01T03:17:47.629Z,67.43
2023-05-01T03:18:47.605Z,63.87
2023-05-01T03:19:47.577Z,64.19
2023-05-01T03:20:47.633Z,64.28
2023-05-01T03:21:47.578Z,64.46
2023-05-01T03:22:47.591Z,64.51
2023-05-01T03:23:47.649Z,67.19
2023-05-01T03:24:47.662Z,65.84
2023-05-01T03:25:47.612Z,63.40
2023-05-01T03:26:47.667Z,64.54
2023-05-01T03:27:47.684Z,65.00
2023-05-01T03:28:47.679Z,65.24
2023-05-01T03:29:47.680Z,63.87
2023-05-01T03:30:47.696Z,64.70
2023-05-01T03:31:47.959Z,63.99
2023-05-01T03:32:47.774Z,64.50
2023-05-01T03:33:47.755Z,64.92
2023-05-01T03:34:47.813Z,64.05
2023-05-01T03:35:47.793Z,63.37
2023-05-01T03:36:47.783Z,65.32
2023-05-01T03:37:47.802Z,63.00
2023-05-01T03:38:47.785Z,64.59
2023-05-01T03:39:47.890Z,63.92
2023-05-01T03:40:47.811Z,66.77
2023-05-01T03:41:47.857Z,65.09
2023-05-01T03:42:47.870Z,63.86
2023-05-01T03:43:47.870Z,66.22
2023-05-01T03:44:47.903Z,64.91
2023-05-01T03:45:47.910Z,65.76
2023-05-01T03:46:47.999Z,67.28
2023-05-01T03:47:47.985Z,66.92
2023-05-01T03:48:47.914Z,64.50
2023-05-01T03:49:47.968Z,64.43
2023-05-01T03:50:47.922Z,66.61
2023-05-01T03:51:47.952Z,66.73
2023-05-01T03:52:47.946Z,64.35
2023-05-01T03:53:47.989Z,66.76
2023-05-01T03:54:48.012Z,66.25
2023-05-01T03:55:48.008Z,66.55
2023-05-01T03:56:48.048Z,66.13
2023-05-01T03:57:48.040Z,68.98
2023-05-01T03:58:48.039Z,66.47
2023-05-01T03:59:48.057Z,64.15
2023-05-01T04:00:48.052Z,66.33
2023-05-01T04:01:48.091Z,64.06
2023-05-01T04:02:48.132Z,64.27
2023-05-01T04:03:48.127Z,66.11
2023-05-01T04:04:48.131Z,65.00
2023-05-01T04:05:48.126Z,66.68
2023-05-01T04:06:48.216Z,63.50
2023-05-01T04:07:48.149Z,64.77
2023-05-01T04:08:48.158Z,67.04
2023-05-01T04:09:48.235Z,61.35
2023-05-01T04:10:48.192Z,61.60
2023-05-01T04:11:48.218Z,64.42
2023-05-01T04:12:48.249Z,63.12
2023-05-01T04:13:48.232Z,63.27
2023-05-01T04:14:48.248Z,62.20
2023-05-01T04:15:48.288Z,61.78
2023-05-01T04:16:48.273Z,59.64
2023-05-01T04:17:48.354Z,61.33
2023-05-01T04:18:48.288Z,59.77
2023-05-01T04:19:48.338Z,58.00
2023-05-01T04:20:48.333Z,59.10
2023-05-01T04:21:48.352Z,56.77
2023-05-01T04:22:48.350Z,58.82
2023-05-01T04:23:48.362Z,57.44
2023-05-01T04:24:48.963Z,58.02
2023-05-01T04:25:48.476Z,56.91
2023-05-01T04:26:48.423Z,56.92
2023-05-01T04:27:48.436Z,57.82
2023-05-01T04:28:48.461Z,55.46
2023-05-01T04:29:48.480Z,55.48
2023-05-01T04:30:48.482Z,54.65
2023-05-01T04:31:48.568Z,56.53
2023-05-01T04:32:48.502Z,55.06
2023-05-01T04:33:48.525Z,55.40
2023-05-01T04:34:48.530Z,53.51
2023-05-01T04:35:48.553Z,52.68
2023-05-01T04:36:48.648Z,55.76
2023-05-01T04:37:48.610Z,51.30
2023-05-01T04:38:48.604Z,54.25
2023-05-01T04:39:48.676Z,53.87
2023-05-01T04:40:48.632Z,52.22
2023-05-01T04:41:48.633Z,56.32
2023-05-01T04:42:48.630Z,53.54
2023-05-01T04:43:48.633Z,53.20
2023-05-01T04:44:48.662Z,53.85
2023-05-01T04:45:48.708Z,53.52
2023-05-01T04:46:48.733Z,53.44
2023-05-01T04:47:48.748Z,52.86
2023-05-01T04:48:48.739Z,52.24
2023-05-01T04:49:48.717Z,53.31
2023-05-01T04:50:48.765Z,53.45
2023-05-01T04:51:48.741Z,54.39
2023-05-01T04:52:48.753Z,52.35
2023-05-01T04:53:48.760Z,53.95
2023-05-01T04:54:48.763Z,52.04
2023-05-01T04:55:48.779Z,55.97
2023-05-01T04:56:48.787Z,52.97
2023-05-01T04:57:48.842Z,52.10
2023-05-01T04:58:48.859Z,55.49
2023-05-01T04:59:48.856Z,54.78
2023-05-01T05:00:48.861Z,54.78
2023-05-01T05:01:48.892Z,52.69
2023-05-01T05:02:48.940Z,53.81
2023-05-01T05:03:50.161Z,54.71
2023-05-01T05:04:48.902Z,54.76
2023-05-01T05:05:48.914Z,52.94
2023-05-01T05:06:49.059Z,53.75
2023-05-01T05:07:48.976Z,52.47
2023-05-01T05:08:48.968Z,52.41
2023-05-01T05:09:48.976Z,54.19
2023-05-01T05:10:48.980Z,55.57
2023-05-01T05:11:48.988Z,55.38
2023-05-01T05:12:49.111Z,55.59
2023-05-01T05:13:49.009Z,55.05
2023-05-01T05:14:49.013Z,55.87
2023-05-01T05:15:49.014Z,52.60
2023-05-01T05:16:49.170Z,54.92
2023-05-01T05:17:49.095Z,53.10
2023-05-01T05:18:49.495Z,55.47
2023-05-01T05:19:49.083Z,58.08
2023-05-01T05:20:49.040Z,53.91
2023-05-01T05:21:49.105Z,55.12
2023-05-01T05:22:49.105Z,57.91
2023-05-01T05:23:49.123Z,55.17
2023-05-01T05:24:49.148Z,54.72
2023-05-01T05:25:49.136Z,54.20
2023-05-01T05:26:49.166Z,53.80
2023-05-01T05:27:49.145Z,55.31
2023-05-01T05:28:49.154Z,55.13
2023-05-01T05:29:49.160Z,56.09
2023-05-01T05:30:49.188Z,54.39
2023-05-01T05:31:49.202Z,56.16
2023-05-01T05:32:49.291Z,57.30
2023-05-01T05:33:49.351Z,56.24
2023-05-01T05:34:49.258Z,56.26
2023-05-01T05:35:49.254Z,55.36
2023-05-01T05:36:49.273Z,55.57
2023-05-01T05:37:49.336Z,53.49
2023-05-01T05:38:49.347Z,58.45
2023-05-01T05:39:49.325Z,55.15
2023-05-01T05:40:49.352Z,56.61
2023-05-01T05:41:49.368Z,55.61
2023-05-01T05:42:49.369Z,55.32
2023-05-01T05:43:49.412Z,58.46
2023-05-01T05:44:49.420Z,56.14
2023-05-01T05:45:49.511Z,54.76
2023-05-01T05:46:49.451Z,55.58
2023-05-01T05:47:49.518Z,55.37
2023-05-01T05:48:49.447Z,54.72
2023-05-01T05:49:49.524Z,56.84
2023-05-01T05:50:49.475Z,56.69
2023-05-01T05:51:49.540Z,56.53
2023-05-01T05:52:49.537Z,56.99
2023-05-01T05:53:49.531Z,57.42
2023-05-01T05:54:49.538Z,56.65
2023-05-01T05:55:49.547Z,55.90
2023-05-01T05:56:49.585Z,55.03
2023-05-01T05:57:49.561Z,55.33
2023-05-01T05:58:49.569Z,54.92
2023-05-01T05:59:49.573Z,57.55
2023-05-01T06:00:49.600Z,53.74
2023-05-01T06:01:49.603Z,55.31
2023-05-01T06:02:49.722Z,56.58
2023-05-01T06:03:49.725Z,54.22
2023-05-01T06:04:49.656Z,55.27
2023-05-01T06:05:49.689Z,56.73
2023-05-01T06:06:49.702Z,56.16
2023-05-01T06:07:49.681Z,56.53
2023-05-01T06:08:49.683Z,54.51
2023-05-01T06:09:49.693Z,53.56
2023-05-01T06:10:49.700Z,56.87
2023-05-01T06:11:49.713Z,56.75
2023-05-01T06:12:53.116Z,54.99
2023-05-01T06:13:50.719Z,55.22
2023-05-01T06:14:49.673Z,55.42
2023-05-01T06:15:49.704Z,55.56
2023-05-01T06:16:49.688Z,55.89
2023-05-01T06:17:49.672Z,55.72
2023-05-01T06:18:49.731Z,58.00
2023-05-01T06:19:49.662Z,56.58
2023-05-01T06:20:49.668Z,53.68
2023-05-01T06:21:49.685Z,56.49
2023-05-01T06:22:49.686Z,55.46
2023-05-01T06:23:49.657Z,55.12
2023-05-01T06:24:49.653Z,56.19
2023-05-01T06:25:49.660Z,52.81
2023-05-01T06:26:50.539Z,55.46
2023-05-01T06:27:49.607Z,59.03
2023-05-01T06:28:49.595Z,56.07
2023-05-01T06:29:49.618Z,54.78
2023-05-01T06:30:49.596Z,56.78
2023-05-01T06:31:49.677Z,58.05
2023-05-01T06:32:49.628Z,58.06
2023-05-01T06:33:49.571Z,56.70
2023-05-01T06:34:49.584Z,57.77
2023-05-01T06:35:49.572Z,55.57
2023-05-01T06:36:49.575Z,56.14
2023-05-01T06:37:49.603Z,58.25
2023-05-01T06:38:49.558Z,55.38
2023-05-01T06:39:49.535Z,57.15
2023-05-01T06:40:49.542Z,60.41
2023-05-01T06:41:49.572Z,57.10
2023-05-01T06:42:49.505Z,58.00
2023-05-01T06:43:49.507Z,56.65
2023-05-01T06:44:49.626Z,60.16
2023-05-01T06:45:49.521Z,57.43
2023-05-01T06:46:49.521Z,57.24
2023-05-01T06:47:49.553Z,57.80
2023-05-01T06:48:49.441Z,59.48
2023-05-01T06:49:49.451Z,59.48
2023-05-01T06:50:49.516Z,59.77
2023-05-01T06:51:49.470Z,57.36
2023-05-01T06:52:49.446Z,61.08
2023-05-01T06:53:49.460Z,58.07
2023-05-01T06:54:49.464Z,59.81
2023-05-01T06:55:49.437Z,55.76
2023-05-01T06:56:49.453Z,58.21
2023-05-01T06:57:49.412Z,58.97
2023-05-01T06:58:49.414Z,58.36
2023-05-01T06:59:49.423Z,58.49
2023-05-01T07:00:49.434Z,59.78
2023-05-01T07:01:49.407Z,57.39
2023-05-01T07:02:49.449Z,58.49
2023-05-01T07:03:49.397Z,58.35
2023-05-01T07:04:49.407Z,59.99
2023-05-01T07:05:49.401Z,61.57
2023-05-01T07:06:49.435Z,59.10
2023-05-01T07:07:58.000Z,56.65
2023-05-01T07:08:50.370Z,56.81
2023-05-01T07:09:49.345Z,57.36
2023-05-01T07:10:49.312Z,58.18
2023-05-01T07:11:49.305Z,58.32
2023-05-01T07:12:49.339Z,58.38
2023-05-01T07:13:49.307Z,62.06
2023-05-01T07:14:49.318Z,58.62
2023-05-01T07:15:49.324Z,59.89
2023-05-01T07:16:49.296Z,61.13
2023-05-01T07:17:49.342Z,58.88
2023-05-01T07:18:49.292Z,62.82
2023-05-01T07:19:49.303Z,58.20
2023-05-01T07:20:49.263Z,59.44
2023-05-01T07:21:49.259Z,62.09
2023-05-01T07:22:49.277Z,60.14
2023-05-01T07:23:49.312Z,60.87
2023-05-01T07:24:49.238Z,61.05
2023-05-01T07:25:49.236Z,59.22
2023-05-01T07:26:49.206Z,60.58
2023-05-01T07:27:49.206Z,61.55
2023-05-01T07:28:49.270Z,61.52
2023-05-01T07:29:49.225Z,63.25
2023-05-01T07:30:49.189Z,62.78
2023-05-01T07:31:49.235Z,62.11
2023-05-01T07:32:49.206Z,60.85
2023-05-01T07:33:49.312Z,61.09
2023-05-01T07:34:49.552Z,60.68
2023-05-01T07:35:49.158Z,61.87
2023-05-01T07:36:49.181Z,62.25
2023-05-01T07:37:49.148Z,62.33
2023-05-01T07:38:49.132Z,63.43
2023-05-01T07:39:49.138Z,62.87
2023-05-01T07:40:49.148Z,62.67
2023-05-01T07:41:49.143Z,61.22
2023-05-01T07:42:49.102Z,63.86
2023-05-01T07:43:49.097Z,62.80
2023-05-01T07:44:49.074Z,61.68
2023-05-01T07:45:49.122Z,64.79
2023-05-01T07:46:49.078Z,66.03
2023-05-01T07:47:49.101Z,64.25
2023-05-01T07:48:49.035Z,61.08
2023-05-01T07:49:49.109Z,63.91
2023-05-01T07:50:49.043Z,65.30
2023-05-01T07:51:49.048Z,65.92
2023-05-01T07:52:49.052Z,65.41
2023-05-01T07:53:49.027Z,68.25
2023-05-01T07:54:49.037Z,68.25
2023-05-01T07:55:49.038Z,67.45
2023-05-01T07:56:49.854Z,68.21
2023-05-01T07:57:49.069Z,68.16
2023-05-01T07:58:49.090Z,68.01
2023-05-01T07:59:49.165Z,64.65
2023-05-01T08:00:49.224Z,65.07
2023-05-01T08:01:49.216Z,66.01
2023-05-01T08:02:49.257Z,65.21
2023-05-01T08:03:50.957Z,65.00
2023-05-01T08:04:49.360Z,67.38
2023-05-01T08:05:49.360Z,67.65
2023-05-01T08:06:49.532Z,66.55
2023-05-01T08:07:49.431Z,66.67
2023-05-01T08:08:49.489Z,66.41
2023-05-01T08:09:49.541Z,66.94
2023-05-01T08:10:49.541Z,64.87
2023-05-01T08:11:49.708Z,69.02
2023-05-01T08:12:49.662Z,65.39
2023-05-01T08:13:49.669Z,68.20
2023-05-01T08:14:49.699Z,66.34
2023-05-01T08:15:50.174Z,66.97
2023-05-01T08:16:49.898Z,66.62
2023-05-01T08:17:49.886Z,67.31
2023-05-01T08:18:50.105Z,72.21
2023-05-01T08:19:49.967Z,67.86
2023-05-01T08:20:49.958Z,68.94
2023-05-01T08:21:50.055Z,70.13
2023-05-01T08:22:50.098Z,72.04
2023-05-01T08:23:50.153Z,69.92
2023-05-01T08:24:50.202Z,68.97
2023-05-01T08:25:50.272Z,69.56
2023-05-01T08:26:50.318Z,68.59
2023-05-01T08:27:50.406Z,68.68
2023-05-01T08:28:50.437Z,70.96
2023-05-01T08:29:50.620Z,68.43
2023-05-01T08:30:50.690Z,72.30
2023-05-01T08:31:50.768Z,69.08
2023-05-01T08:32:50.764Z,70.30
2023-05-01T08:33:50.741Z,69.78
2023-05-01T08:34:50.826Z,66.99
2023-05-01T08:35:50.900Z,71.78
2023-05-01T08:36:50.959Z,67.11
2023-05-01T08:37:51.024Z,70.21
2023-05-01T08:38:51.060Z,69.04
2023-05-01T08:39:51.133Z,69.90
2023-05-01T08:40:51.188Z,70.69
2023-05-01T08:41:51.239Z,69.45
2023-05-01T08:42:51.269Z,65.65
2023-05-01T08:43:51.349Z,70.28
2023-05-01T08:44:51.425Z,69.77
2023-05-01T08:45:51.433Z,69.55
2023-05-01T08:46:51.535Z,70.25
2023-05-01T08:47:51.568Z,71.78
2023-05-01T08:48:51.598Z,71.43
2023-05-01T08:49:51.668Z,69.25
2023-05-01T08:50:51.720Z,67.58
2023-05-01T08:51:51.783Z,68.97
2023-05-01T08:52:51.823Z,71.93
2023-05-01T08:53:51.886Z,71.99
2023-05-01T08:54:51.940Z,71.49
2023-05-01T08:55:51.972Z,70.28
2023-05-01T08:56:52.049Z,69.18
2023-05-01T08:57:52.137Z,69.46
2023-05-01T08:58:52.179Z,69.15
2023-05-01T08:59:52.236Z,67.55
2023-05-01T09:00:52.248Z,66.92
2023-05-01T09:01:52.357Z,71.36
2023-05-01T09:02:52.397Z,71.11
2023-05-01T09:03:52.467Z,75.68
2023-05-01T09:04:52.481Z,71.93
2023-05-01T09:05:52.536Z,70.08
2023-05-01T09:06:52.590Z,68.42
2023-05-01T09:07:52.601Z,67.92
2023-05-01T09:08:52.662Z,71.19
2023-05-01T09:09:52.731Z,67.58
2023-05-01T09:10:52.723Z,72.71
2023-05-01T09:11:52.771Z,72.04
2023-05-01T09:12:52.795Z,76.61
2023-05-01T09:13:52.892Z,72.77
2023-05-01T09:14:52.888Z,70.81
2023-05-01T09:15:53.011Z,71.69
2023-05-01T09:16:53.158Z,69.09
2023-05-01T09:17:53.107Z,71.21
2023-05-01T09:18:53.111Z,71.04
2023-05-01T09:19:53.404Z,74.02
2023-05-01T09:20:53.239Z,71.37
2023-05-01T09:21:53.292Z,73.18
2023-05-01T09:22:53.319Z,72.96
2023-05-01T09:23:53.362Z,72.12
2023-05-01T09:24:53.410Z,72.91
2023-05-01T09:25:53.471Z,72.32
2023-05-01T09:26:53.565Z,71.01
2023-05-01T09:27:53.590Z,71.88
2023-05-01T09:28:53.649Z,73.25
2023-05-01T09:29:53.732Z,74.30
2023-05-01T09:30:53.739Z,74.52
2023-05-01T09:31:53.858Z,74.39
2023-05-01T09:32:53.840Z,71.88
2023-05-01T09:33:53.894Z,71.42
2023-05-01T09:34:53.943Z,72.34
2023-05-01T09:35:54.031Z,73.86
2023-05-01T09:36:54.077Z,67.09
2023-05-01T09:37:54.126Z,73.26
2023-05-01T09:38:54.148Z,72.21
2023-05-01T09:39:54.384Z,74.24
2023-05-01T09:40:54.274Z,74.07
2023-05-01T09:41:54.328Z,72.77
2023-05-01T09:42:54.393Z,72.25
2023-05-01T09:43:54.418Z,72.51
2023-05-01T09:44:54.485Z,73.47
2023-05-01T09:45:54.593Z,71.46
2023-05-01T09:46:54.552Z,73.46
2023-05-01T09:47:54.716Z,72.40
2023-05-01T09:48:54.652Z,72.09
2023-05-01T09:49:54.875Z,73.27
2023-05-01T09:50:54.777Z,71.45
2023-05-01T09:51:54.829Z,70.53
2023-05-01T09:52:54.842Z,74.73
2023-05-01T09:53:54.898Z,75.02
2023-05-01T09:54:54.913Z,74.96
2023-05-01T09:55:55.015Z,74.49
2023-05-01T09:56:55.086Z,74.49
2023-05-01T09:57:55.065Z,74.90
2023-05-01T09:58:55.141Z,73.10
2023-05-01T09:59:55.405Z,74.10
2023-05-01T10:00:55.250Z,74.20
2023-05-01T10:01:55.375Z,75.04
2023-05-01T10:02:55.620Z,72.75
2023-05-01T10:03:55.547Z,73.91
2023-05-01T10:04:55.432Z,73.57
2023-05-01T10:05:55.450Z,74.43
2023-05-01T10:06:55.634Z,75.26
2023-05-01T10:07:55.565Z,76.68
2023-05-01T10:08:55.586Z,75.92
2023-05-01T10:09:56.470Z,74.58
2023-05-01T10:10:55.689Z,76.26
2023-05-01T10:11:55.851Z,72.99
2023-05-01T10:12:55.773Z,76.05
2023-05-01T10:13:55.813Z,75.30
2023-05-01T10:14:55.820Z,73.22
2023-05-01T10:15:55.874Z,73.11
2023-05-01T10:16:55.975Z,74.43
2023-05-01T10:17:56.018Z,74.64
2023-05-01T10:18:55.994Z,74.40
2023-05-01T10:19:56.241Z,75.05
2023-05-01T10:20:56.056Z,76.59
2023-05-01T10:21:56.134Z,74.34
2023-05-01T10:22:56.144Z,75.69
2023-05-01T10:23:56.205Z,75.00
2023-05-01T10:24:56.288Z,75.07
2023-05-01T10:25:56.354Z,75.88
2023-05-01T10:26:56.430Z,75.62
2023-05-01T10:27:56.412Z,74.36
2023-05-01T10:28:56.421Z,76.42
2023-05-01T10:29:56.655Z,74.32
2023-05-01T10:30:56.556Z,73.14
2023-05-01T10:31:56.740Z,76.91
2023-05-01T10:32:56.612Z,77.62
2023-05-01T10:33:56.606Z,77.76
2023-05-01T10:34:56.868Z,78.05
2023-05-01T10:35:56.687Z,76.58
2023-05-01T10:36:56.729Z,75.45
2023-05-01T10:37:56.758Z,72.97
2023-05-01T10:38:56.791Z,78.44
2023-05-01T10:39:56.787Z,78.50
2023-05-01T10:40:56.843Z,76.48
2023-05-01T10:41:56.827Z,74.47
2023-05-01T10:42:56.880Z,79.17
2023-05-01T10:43:56.934Z,77.13
2023-05-01T10:44:57.154Z,77.91
2023-05-01T10:45:56.996Z,75.43
2023-05-01T10:46:57.027Z,80.10
2023-05-01T10:47:57.084Z,79.57
2023-05-01T10:48:57.071Z,78.82
2023-05-01T10:49:57.102Z,78.46
2023-05-01T10:50:57.082Z,75.94
2023-05-01T10:51:57.254Z,77.89
2023-05-01T10:52:57.145Z,79.07
2023-05-01T10:53:57.169Z,79.91
2023-05-01T10:54:57.396Z,80.63
2023-05-01T10:55:57.220Z,76.86
2023-05-01T10:56:57.321Z,78.84
2023-05-01T10:57:57.278Z,80.19
2023-05-01T10:58:57.288Z,80.04
2023-05-01T10:59:57.296Z,79.87
2023-05-01T11:00:57.355Z,79.50
2023-05-01T11:01:57.389Z,75.24
2023-05-01T11:02:57.405Z,78.29
2023-05-01T11:03:57.460Z,78.36
2023-05-01T11:04:57.607Z,76.81
2023-05-01T11:05:57.577Z,77.40
2023-05-01T11:06:57.524Z,80.42
2023-05-01T11:07:57.507Z,77.87
2023-05-01T11:08:57.538Z,80.23
2023-05-01T11:09:57.589Z,78.52
2023-05-01T11:10:57.564Z,82.11
2023-05-01T11:11:57.576Z,81.99
2023-05-01T11:12:57.645Z,81.41
2023-05-01T11:13:57.602Z,83.78
2023-05-01T11:14:57.918Z,83.16
2023-05-01T11:15:57.628Z,79.77
2023-05-01T11:16:57.671Z,81.72
2023-05-01T11:17:57.676Z,80.04
2023-05-01T11:18:57.683Z,79.68
2023-05-01T11:19:57.687Z,81.18
2023-05-01T11:20:57.721Z,81.84
2023-05-01T11:21:57.695Z,81.53
2023-05-01T11:22:57.735Z,81.49
2023-05-01T11:23:57.724Z,81.29
2023-05-01T11:24:58.022Z,81.78
2023-05-01T11:25:57.792Z,83.95
2023-05-01T11:26:57.738Z,83.24
2023-05-01T11:27:57.810Z,83.92
2023-05-01T11:28:57.783Z,82.24
2023-05-01T11:29:57.816Z,81.38
2023-05-01T11:30:57.820Z,81.07
2023-05-01T11:31:57.926Z,82.04
2023-05-01T11:32:57.879Z,82.10
2023-05-01T11:33:57.945Z,83.35
2023-05-01T11:34:58.162Z,83.05
2023-05-01T11:35:57.858Z,83.15
2023-05-01T11:36:57.875Z,83.34
2023-05-01T11:37:57.968Z,82.25
2023-05-01T11:38:57.882Z,83.15
2023-05-01T11:39:57.897Z,85.69
2023-05-01T11:40:57.955Z,85.50
2023-05-01T11:41:57.925Z,82.99
2023-05-01T11:42:57.968Z,82.99
2023-05-01T11:43:58.026Z,84.91
2023-05-01T11:44:58.103Z,84.25
2023-05-01T11:45:57.999Z,83.39
2023-05-01T11:46:57.989Z,84.27
2023-05-01T11:47:58.032Z,86.94
2023-05-01T11:48:58.000Z,83.46
2023-05-01T11:49:57.999Z,86.06
2023-05-01T11:50:57.990Z,87.33
2023-05-01T11:51:58.012Z,84.14
2023-05-01T11:52:58.060Z,85.18
2023-05-01T11:53:58.025Z,83.98
2023-05-01T11:54:58.046Z,83.36
2023-05-01T11:55:58.028Z,82.64
2023-05-01T11:56:58.018Z,85.24
2023-05-01T11:57:58.067Z,86.28
2023-05-01T11:58:58.055Z,87.79
2023-05-01T11:59:58.066Z,86.16
2023-05-01T12:00:58.080Z,88.73
2023-05-01T12:01:58.116Z,83.35
2023-05-01T12:02:58.150Z,86.33
2023-05-01T12:03:58.119Z,87.34
2023-05-01T12:04:58.302Z,87.02
2023-05-01T12:05:58.182Z,87.00
2023-05-01T12:06:58.114Z,84.57
2023-05-01T12:07:58.207Z,87.32
2023-05-01T12:08:58.155Z,86.25
2023-05-01T12:09:58.258Z,86.56
2023-05-01T12:10:58.203Z,87.71
2023-05-01T12:11:58.153Z,86.36
2023-05-01T12:12:58.210Z,84.08
2023-05-01T12:13:58.234Z,86.78
2023-05-01T12:14:58.443Z,87.26
2023-05-01T12:15:58.233Z,84.85
2023-05-01T12:16:58.285Z,85.79
2023-05-01T12:17:58.294Z,87.41
2023-05-01T12:18:58.251Z,86.69
2023-05-01T12:19:58.294Z,87.50
2023-05-01T12:20:58.327Z,89.79
2023-05-01T12:21:58.282Z,84.66
2023-05-01T12:22:58.283Z,84.86
2023-05-01T12:23:58.294Z,86.04
2023-05-01T12:24:58.485Z,85.63
2023-05-01T12:25:58.333Z,85.08
2023-05-01T12:26:58.300Z,86.06
2023-05-01T12:27:58.315Z,85.56
2023-05-01T12:28:58.331Z,86.15
2023-05-01T12:29:58.326Z,85.64
2023-05-01T12:30:58.385Z,87.09
2023-05-01T12:31:58.435Z,86.44
2023-05-01T12:32:58.436Z,85.97
2023-05-01T12:33:58.484Z,86.39
2023-05-01T12:34:58.561Z,86.11
2023-05-01T12:35:58.419Z,87.11
2023-05-01T12:36:58.424Z,89.01
2023-05-01T12:37:58.522Z,79.77
2023-05-01T12:38:58.388Z,87.43
2023-05-01T12:39:58.396Z,88.19
2023-05-01T12:40:58.411Z,87.60
2023-05-01T12:41:58.413Z,89.65
2023-05-01T12:42:58.355Z,86.25
2023-05-01T12:43:58.363Z,80.82
2023-05-01T12:44:58.728Z,88.18
2023-05-01T12:45:58.383Z,88.35
2023-05-01T12:46:58.469Z,89.23
2023-05-01T12:47:58.493Z,89.40
2023-05-01T12:48:58.462Z,87.15
2023-05-01T12:49:58.715Z,87.71
2023-05-01T12:50:58.403Z,85.85
2023-05-01T12:51:58.439Z,86.99
2023-05-01T12:52:58.405Z,86.50